createdAt,value
2023-05-19T00:00:05.026Z,9.88
2023-05-19T00:01:05.027Z,9.88
2023-05-19T00:02:05.050Z,9.88
2023-05-19T00:03:05.224Z,9.82
2023-05-19T00:04:04.967Z,9.79
2023-05-19T00:05:05.905Z,9.76
2023-05-19T00:06:04.948Z,9.78
2023-05-19T00:07:04.961Z,9.75
2023-05-19T00:08:04.914Z,9.73
2023-05-19T00:09:04.948Z,9.75
2023-05-19T00:10:04.903Z,9.76
2023-05-19T00:11:04.922Z,9.79
2023-05-19T00:12:04.876Z,9.81
2023-05-19T00:13:04.912Z,9.81
2023-05-19T00:14:04.872Z,9.83
2023-05-19T00:15:04.859Z,9.86
2023-05-19T00:16:04.872Z,9.89
2023-05-19T00:17:04.855Z,9.93
2023-05-19T00:18:04.823Z,9.94
2023-05-19T00:19:04.874Z,9.96
2023-05-19T00:20:04.773Z,9.99
2023-05-19T00:21:04.792Z,9.97
2023-05-19T00:22:04.761Z,9.99
2023-05-19T00:23:04.798Z,9.99
2023-05-19T00:24:04.749Z,10.00
2023-05-19T00:25:04.762Z,10.00
2023-05-19T00:26:04.706Z,9.99
2023-05-19T00:27:04.721Z,9.99
2023-05-19T00:28:04.716Z,9.97
2023-05-19T00:29:04.699Z,9.96
2023-05-19T00:30:04.683Z,9.97
2023-05-19T00:31:04.684Z,9.96
2023-05-19T00:32:04.667Z,9.94
2023-05-19T00:33:04.763Z,9.94
2023-05-19T00:34:04.660Z,9.93
2023-05-19T00:35:04.639Z,9.91
2023-05-19T00:36:04.594Z,9.93
2023-05-19T00:37:04.619Z,9.94
2023-05-19T00:38:04.589Z,9.93
2023-05-19T00:39:04.630Z,9.91
2023-05-19T00:40:04.566Z,9.91
2023-05-19T00:41:04.591Z,9.91
2023-05-19T00:42:04.565Z,9.89
2023-05-19T00:43:04.556Z,9.89
2023-05-19T00:44:04.544Z,9.89
2023-05-19T00:45:04.536Z,9.86
2023-05-19T00:46:04.497Z,9.86
2023-05-19T00:47:04.627Z,9.86
2023-05-19T00:48:04.537Z,9.83
2023-05-19T00:49:04.463Z,9.83
2023-05-19T00:50:04.456Z,9.83
2023-05-19T00:51:04.928Z,9.83
2023-05-19T00:52:04.439Z,9.83
2023-05-19T00:53:04.428Z,9.83
2023-05-19T00:54:04.424Z,9.83
2023-05-19T00:55:05.383Z,9.82
2023-05-19T00:56:04.366Z,9.85
2023-05-19T00:57:04.407Z,9.85
2023-05-19T00:58:04.355Z,9.85
2023-05-19T00:59:04.357Z,9.86
2023-05-19T01:00:04.331Z,9.86
2023-05-19T01:01:05.159Z,9.85
2023-05-19T01:02:06.283Z,9.85
2023-05-19T01:03:04.390Z,9.83
2023-05-19T01:04:04.392Z,9.85
2023-05-19T01:05:04.386Z,9.83
2023-05-19T01:06:04.276Z,9.82
2023-05-19T01:07:04.283Z,9.82
2023-05-19T01:08:04.279Z,9.79
2023-05-19T01:09:04.283Z,9.79
2023-05-19T01:10:04.221Z,9.78
2023-05-19T01:11:04.252Z,9.76
2023-05-19T01:12:04.211Z,9.73
2023-05-19T01:13:04.237Z,9.71
2023-05-19T01:14:04.197Z,9.68
2023-05-19T01:15:04.184Z,9.67
2023-05-19T01:16:04.190Z,9.66
2023-05-19T01:17:04.159Z,9.61
2023-05-19T01:18:04.185Z,9.61
2023-05-19T01:19:04.230Z,9.61
2023-05-19T01:20:04.101Z,9.61
2023-05-19T01:21:04.141Z,9.58
2023-05-19T01:22:04.114Z,9.58
2023-05-19T01:23:04.100Z,9.60
2023-05-19T01:24:04.087Z,9.61
2023-05-19T01:25:04.069Z,9.63
2023-05-19T01:26:04.046Z,9.63
2023-05-19T01:27:04.048Z,9.61
2023-05-19T01:28:04.024Z,9.61
2023-05-19T01:29:04.062Z,9.61
2023-05-19T01:30:03.985Z,9.61
2023-05-19T01:31:03.998Z,9.60
2023-05-19T01:32:04.018Z,9.60
2023-05-19T01:33:04.041Z,9.60
2023-05-19T01:34:03.980Z,9.58
2023-05-19T01:35:03.959Z,9.58
2023-05-19T01:36:03.937Z,9.57
2023-05-19T01:37:03.982Z,9.58
2023-05-19T01:38:03.929Z,9.58
2023-05-19T01:39:03.952Z,9.56
2023-05-19T01:40:03.925Z,9.56
2023-05-19T01:41:03.913Z,9.57
2023-05-19T01:42:03.886Z,9.56
2023-05-19T01:43:03.882Z,9.56
2023-05-19T01:44:03.851Z,9.57
2023-05-19T01:45:03.856Z,9.57
2023-05-19T01:46:03.870Z,9.56
2023-05-19T01:47:03.832Z,9.56
2023-05-19T01:48:03.806Z,9.52
2023-05-19T01:49:03.819Z,9.52
2023-05-19T01:50:03.804Z,9.48
2023-05-19T01:51:03.788Z,9.46
2023-05-19T01:52:03.766Z,9.45
2023-05-19T01:53:03.763Z,9.40
2023-05-19T01:54:03.758Z,9.38
2023-05-19T01:55:03.791Z,9.35
2023-05-19T01:56:03.718Z,9.32
2023-05-19T01:57:03.710Z,9.30
2023-05-19T01:58:03.708Z,9.27
2023-05-19T01:59:03.698Z,9.23
2023-05-19T02:00:03.698Z,9.18
2023-05-19T02:01:03.680Z,9.16
2023-05-19T02:02:03.680Z,9.12
2023-05-19T02:03:03.806Z,9.06
2023-05-19T02:04:03.738Z,9.01
2023-05-19T02:05:03.613Z,8.99
2023-05-19T02:06:03.880Z,8.97
2023-05-19T02:07:03.846Z,8.94
2023-05-19T02:08:03.927Z,8.91
2023-05-19T02:09:03.701Z,8.91
2023-05-19T02:10:03.606Z,8.93
2023-05-19T02:11:03.555Z,8.91
2023-05-19T02:12:03.893Z,8.91
2023-05-19T02:13:03.527Z,8.93
2023-05-19T02:14:03.561Z,8.93
2023-05-19T02:15:03.875Z,8.91
2023-05-19T02:16:04.007Z,8.91
2023-05-19T02:17:03.907Z,8.91
2023-05-19T02:18:03.926Z,8.88
2023-05-19T02:19:03.869Z,8.91
2023-05-19T02:20:03.924Z,8.87
2023-05-19T02:21:03.889Z,8.84
2023-05-19T02:22:03.452Z,8.83
2023-05-19T02:23:03.416Z,8.79
2023-05-19T02:24:03.891Z,8.75
2023-05-19T02:25:03.397Z,8.71
2023-05-19T02:26:03.410Z,8.68
2023-05-19T02:27:03.415Z,8.66
2023-05-19T02:28:03.403Z,8.63
2023-05-19T02:29:03.826Z,8.62
2023-05-19T02:30:03.377Z,8.58
2023-05-19T02:31:03.323Z,8.54
2023-05-19T02:32:03.445Z,8.45
2023-05-19T02:33:03.363Z,8.37
2023-05-19T02:34:03.356Z,8.30
2023-05-19T02:35:03.331Z,8.26
2023-05-19T02:36:03.384Z,8.25
2023-05-19T02:37:03.375Z,8.22
2023-05-19T02:38:03.351Z,8.22
2023-05-19T02:39:03.216Z,8.25
2023-05-19T02:40:03.364Z,8.25
2023-05-19T02:41:03.228Z,8.25
2023-05-19T02:42:03.224Z,8.22
2023-05-19T02:43:03.206Z,8.21
2023-05-19T02:44:03.197Z,8.21
2023-05-19T02:45:03.216Z,8.22
2023-05-19T02:46:03.209Z,8.22
2023-05-19T02:47:03.199Z,8.22
2023-05-19T02:48:03.213Z,8.21
2023-05-19T02:49:03.107Z,8.21
2023-05-19T02:50:03.154Z,8.21
2023-05-19T02:51:03.109Z,8.20
2023-05-19T02:52:03.131Z,8.17
2023-05-19T02:53:03.110Z,8.18
2023-05-19T02:54:03.096Z,8.17
2023-05-19T02:55:03.056Z,8.14
2023-05-19T02:56:03.089Z,8.12
2023-05-19T02:57:03.050Z,8.11
2023-05-19T02:58:03.055Z,8.08
2023-05-19T02:59:03.004Z,8.08
2023-05-19T03:00:03.050Z,8.03
2023-05-19T03:01:02.986Z,8.00
2023-05-19T03:02:03.080Z,7.97
2023-05-19T03:03:03.204Z,7.94
2023-05-19T03:04:03.082Z,7.92
2023-05-19T03:05:02.949Z,7.89
2023-05-19T03:06:02.955Z,7.87
2023-05-19T03:07:02.953Z,7.84
2023-05-19T03:08:02.940Z,7.82
2023-05-19T03:09:02.913Z,7.81
2023-05-19T03:10:02.928Z,7.81
2023-05-19T03:11:02.876Z,7.79
2023-05-19T03:12:02.909Z,7.79
2023-05-19T03:13:02.866Z,7.77
2023-05-19T03:14:02.860Z,7.78
2023-05-19T03:15:02.847Z,7.79
2023-05-19T03:16:02.909Z,7.81
2023-05-19T03:17:02.842Z,7.79
2023-05-19T03:18:02.912Z,7.79
2023-05-19T03:19:02.872Z,7.77
2023-05-19T03:20:02.788Z,7.78
2023-05-19T03:21:02.784Z,7.77
2023-05-19T03:22:02.815Z,7.75
2023-05-19T03:23:02.747Z,7.77
2023-05-19T03:24:02.806Z,7.77
2023-05-19T03:25:02.715Z,7.75
2023-05-19T03:26:02.727Z,7.74
2023-05-19T03:27:02.728Z,7.75
2023-05-19T03:28:02.721Z,7.74
2023-05-19T03:29:02.685Z,7.72
2023-05-19T03:30:05.723Z,7.72
2023-05-19T03:31:02.666Z,7.71
2023-05-19T03:32:02.732Z,7.71
2023-05-19T03:33:02.837Z,7.69
2023-05-19T03:34:02.677Z,7.69
2023-05-19T03:35:02.631Z,7.67
2023-05-19T03:36:02.636Z,7.63
2023-05-19T03:37:02.595Z,7.62
2023-05-19T03:38:02.604Z,7.59
2023-05-19T03:39:02.595Z,7.58
2023-05-19T03:40:02.669Z,7.56
2023-05-19T03:41:02.552Z,7.53
2023-05-19T03:42:02.568Z,7.53
2023-05-19T03:43:02.529Z,7.50
2023-05-19T03:44:02.553Z,7.52
2023-05-19T03:45:02.516Z,7.53
2023-05-19T03:46:02.621Z,7.55
2023-05-19T03:47:02.512Z,7.56
2023-05-19T03:48:02.553Z,7.58
2023-05-19T03:49:02.491Z,7.58
2023-05-19T03:50:02.481Z,7.58
2023-05-19T03:51:02.474Z,7.59
2023-05-19T03:52:02.476Z,7.60
2023-05-19T03:53:02.418Z,7.66
2023-05-19T03:54:02.467Z,7.66
2023-05-19T03:55:02.402Z,7.67
2023-05-19T03:56:02.436Z,7.66
2023-05-19T03:57:02.382Z,7.66
2023-05-19T03:58:02.387Z,7.69
2023-05-19T03:59:02.350Z,7.69
2023-05-19T04:00:02.390Z,7.71
2023-05-19T04:01:02.340Z,7.69
2023-05-19T04:02:02.391Z,7.69
2023-05-19T04:03:02.459Z,7.71
2023-05-19T04:04:02.392Z,7.71
2023-05-19T04:05:02.317Z,7.71
2023-05-19T04:06:02.322Z,7.71
2023-05-19T04:07:02.268Z,7.71
2023-05-19T04:08:02.288Z,7.69
2023-05-19T04:09:02.243Z,7.72
2023-05-19T04:10:02.268Z,7.74
2023-05-19T04:11:02.234Z,7.74
2023-05-19T04:12:02.235Z,7.77
2023-05-19T04:13:02.213Z,7.78
2023-05-19T04:14:02.239Z,7.81
2023-05-19T04:15:02.194Z,7.84
2023-05-19T04:16:02.221Z,7.89
2023-05-19T04:17:02.150Z,7.89
2023-05-19T04:18:02.196Z,7.90
2023-05-19T04:19:02.200Z,7.92
2023-05-19T04:20:02.199Z,7.96
2023-05-19T04:21:02.127Z,7.96
2023-05-19T04:22:02.154Z,7.99
2023-05-19T04:23:02.134Z,8.03
2023-05-19T04:24:02.102Z,8.10
2023-05-19T04:25:02.088Z,8.15
2023-05-19T04:26:02.074Z,8.21
2023-05-19T04:27:02.046Z,8.30
2023-05-19T04:28:02.066Z,8.60
2023-05-19T04:29:02.058Z,8.96
2023-05-19T04:30:02.052Z,9.28
2023-05-19T04:31:02.019Z,9.64
2023-05-19T04:32:02.010Z,9.79
2023-05-19T04:33:02.032Z,9.99
2023-05-19T04:34:01.988Z,10.24
2023-05-19T04:35:02.007Z,10.60
2023-05-19T04:36:01.964Z,11.01
2023-05-19T04:37:01.934Z,11.25
2023-05-19T04:38:01.954Z,11.13
2023-05-19T04:39:01.926Z,11.02
2023-05-19T04:40:01.972Z,10.66
2023-05-19T04:41:01.902Z,10.33
2023-05-19T04:42:01.909Z,10.10
2023-05-19T04:43:01.860Z,9.94
2023-05-19T04:44:01.892Z,9.89
2023-05-19T04:45:01.853Z,10.30
2023-05-19T04:46:01.884Z,10.80
2023-05-19T04:47:01.917Z,11.38
2023-05-19T04:48:01.892Z,12.30
2023-05-19T04:49:01.817Z,12.93
2023-05-19T04:50:01.834Z,13.52
2023-05-19T04:51:01.779Z,13.79
2023-05-19T04:52:01.805Z,13.92
2023-05-19T04:53:01.798Z,13.92
2023-05-19T04:54:01.768Z,13.54
2023-05-19T04:55:01.813Z,13.03
2023-05-19T04:56:01.779Z,12.60
2023-05-19T04:57:01.729Z,12.21
2023-05-19T04:58:01.728Z,11.83
2023-05-19T04:59:01.705Z,11.46
2023-05-19T05:00:01.745Z,11.16
2023-05-19T05:01:01.654Z,10.98
2023-05-19T05:02:01.752Z,10.89
2023-05-19T05:03:01.712Z,10.92
2023-05-19T05:04:01.720Z,10.91
2023-05-19T05:05:01.640Z,10.92
2023-05-19T05:06:01.619Z,10.84
2023-05-19T05:07:01.586Z,10.76
2023-05-19T05:08:01.653Z,10.77
2023-05-19T05:09:01.602Z,10.80
2023-05-19T05:10:01.625Z,10.78
2023-05-19T05:11:01.564Z,10.76
2023-05-19T05:12:01.565Z,10.70
2023-05-19T05:13:03.490Z,10.66
2023-05-19T05:14:01.685Z,10.68
2023-05-19T05:15:01.526Z,10.71
2023-05-19T05:16:01.613Z,10.71
2023-05-19T05:17:01.491Z,10.71
2023-05-19T05:18:01.529Z,10.70
2023-05-19T05:19:01.729Z,10.66
2023-05-19T05:20:01.496Z,10.63
2023-05-19T05:21:01.430Z,10.59
2023-05-19T05:22:01.462Z,10.60
2023-05-19T05:23:01.411Z,10.59
2023-05-19T05:24:01.496Z,10.59
2023-05-19T05:25:01.415Z,10.60
2023-05-19T05:26:01.408Z,10.66
2023-05-19T05:27:01.376Z,10.70
2023-05-19T05:28:02.319Z,10.68
2023-05-19T05:29:01.346Z,10.68
2023-05-19T05:30:01.353Z,10.66
2023-05-19T05:31:01.303Z,10.66
2023-05-19T05:32:01.422Z,10.70
2023-05-19T05:33:01.400Z,10.70
2023-05-19T05:34:01.325Z,10.73
2023-05-19T05:35:01.269Z,10.80
2023-05-19T05:36:01.295Z,10.84
2023-05-19T05:37:01.262Z,10.94
2023-05-19T05:38:01.248Z,10.99
2023-05-19T05:39:01.223Z,11.06
2023-05-19T05:40:01.239Z,11.07
2023-05-19T05:41:01.213Z,11.07
2023-05-19T05:42:01.216Z,11.06
2023-05-19T05:43:01.182Z,11.07
2023-05-19T05:44:01.188Z,11.07
2023-05-19T05:45:01.158Z,11.11
2023-05-19T05:46:01.287Z,11.16
2023-05-19T05:47:01.130Z,11.16
2023-05-19T05:48:01.238Z,11.14
2023-05-19T05:49:01.165Z,11.21
2023-05-19T05:50:01.140Z,11.17
2023-05-19T05:51:01.096Z,11.14
2023-05-19T05:52:06.440Z,11.24
2023-05-19T05:53:02.082Z,11.32
2023-05-19T05:54:03.090Z,11.34
2023-05-19T05:55:01.055Z,11.16
2023-05-19T05:56:01.076Z,11.16
2023-05-19T05:57:01.038Z,11.24
2023-05-19T05:58:01.042Z,11.27
2023-05-19T05:59:01.010Z,11.34
2023-05-19T06:00:01.017Z,11.44
2023-05-19T06:01:01.000Z,11.41
2023-05-19T06:02:01.098Z,11.28
2023-05-19T06:03:01.083Z,11.28
2023-05-19T06:04:00.968Z,11.21
2023-05-19T06:05:01.003Z,11.09
2023-05-19T06:06:01.066Z,10.95
2023-05-19T06:07:00.997Z,10.94
2023-05-19T06:08:00.977Z,10.89
2023-05-19T06:09:00.880Z,10.74
2023-05-19T06:10:00.948Z,10.86
2023-05-19T06:11:00.893Z,11.01
2023-05-19T06:12:00.912Z,11.13
2023-05-19T06:13:00.865Z,11.27
2023-05-19T06:14:00.864Z,11.35
2023-05-19T06:15:00.854Z,11.46
2023-05-19T06:16:02.026Z,11.44
2023-05-19T06:17:00.835Z,11.20
2023-05-19T06:18:00.908Z,11.11
2023-05-19T06:19:00.854Z,11.16
2023-05-19T06:20:00.783Z,11.28
2023-05-19T06:21:00.820Z,11.34
2023-05-19T06:22:00.771Z,11.39
2023-05-19T06:23:00.781Z,11.39
2023-05-19T06:24:00.737Z,11.32
2023-05-19T06:25:00.722Z,11.35
2023-05-19T06:26:02.697Z,11.34
2023-05-19T06:27:00.723Z,11.14
2023-05-19T06:28:00.688Z,11.07
2023-05-19T06:29:00.702Z,11.20
2023-05-19T06:30:00.705Z,11.24
2023-05-19T06:31:00.747Z,11.32
2023-05-19T06:32:00.624Z,11.36
2023-05-19T06:33:00.742Z,11.49
2023-05-19T06:34:02.608Z,11.54
2023-05-19T06:35:00.631Z,11.59
2023-05-19T06:36:00.636Z,11.71
2023-05-19T06:37:02.709Z,11.83
2023-05-19T06:38:00.583Z,11.90
2023-05-19T06:39:02.584Z,11.97
2023-05-19T06:40:00.536Z,11.80
2023-05-19T06:41:00.553Z,11.74
2023-05-19T06:42:00.540Z,11.72
2023-05-19T06:43:00.528Z,11.68
2023-05-19T06:44:00.477Z,11.56
2023-05-19T06:45:00.513Z,11.41
2023-05-19T06:46:00.487Z,11.41
2023-05-19T06:47:00.536Z,11.43
2023-05-19T06:48:00.577Z,11.47
2023-05-19T06:49:00.487Z,11.52
2023-05-19T06:50:01.083Z,11.54
2023-05-19T06:51:00.508Z,11.59
2023-05-19T06:52:00.444Z,11.64
2023-05-19T06:53:00.482Z,11.67
2023-05-19T06:54:00.378Z,11.70
2023-05-19T06:55:00.393Z,11.71
2023-05-19T06:56:00.657Z,11.75
2023-05-19T06:57:00.366Z,11.82
2023-05-19T06:58:00.352Z,11.90
2023-05-19T06:59:00.351Z,11.96
2023-05-19T07:00:00.302Z,12.05
2023-05-19T07:01:00.352Z,12.02
2023-05-19T07:02:00.430Z,12.09
2023-05-19T07:03:00.456Z,12.11
2023-05-19T07:04:00.382Z,12.13
2023-05-19T07:05:00.313Z,12.21
2023-05-19T07:06:00.237Z,12.15
2023-05-19T07:07:00.252Z,12.11
2023-05-19T07:08:00.258Z,11.99
2023-05-19T07:09:00.246Z,11.96
2023-05-19T07:10:00.191Z,12.01
2023-05-19T07:11:00.210Z,12.06
2023-05-19T07:12:00.667Z,12.11
2023-05-19T07:13:00.230Z,12.12
2023-05-19T07:14:00.189Z,12.13
2023-05-19T07:15:00.172Z,12.20
2023-05-19T07:16:00.256Z,12.24
2023-05-19T07:17:00.145Z,12.27
2023-05-19T07:18:00.247Z,12.33
2023-05-19T07:19:00.304Z,12.38
2023-05-19T07:20:00.137Z,12.45
2023-05-19T07:21:00.144Z,12.54
2023-05-19T07:22:00.066Z,12.57
2023-05-19T07:23:00.146Z,12.54
2023-05-19T07:24:00.087Z,12.57
2023-05-19T07:25:00.061Z,12.59
2023-05-19T07:26:00.071Z,12.60
2023-05-19T07:27:00.043Z,12.63
2023-05-19T07:28:00.028Z,12.66
2023-05-19T07:29:02.061Z,12.67
2023-05-19T07:29:59.967Z,12.70
2023-05-19T07:31:00.003Z,12.75
2023-05-19T07:32:01.518Z,12.79
2023-05-19T07:33:00.017Z,12.93
2023-05-19T07:33:59.952Z,13.09
2023-05-19T07:35:00.755Z,13.25
2023-05-19T07:35:59.948Z,13.38
2023-05-19T07:37:00.287Z,13.52
2023-05-19T07:37:59.895Z,13.63
2023-05-19T07:38:59.926Z,13.70
2023-05-19T07:39:59.873Z,13.74
2023-05-19T07:40:59.984Z,13.81
2023-05-19T07:41:59.841Z,13.95
2023-05-19T07:42:59.898Z,14.02
2023-05-19T07:43:59.828Z,14.13
2023-05-19T07:44:59.832Z,14.13
2023-05-19T07:45:59.858Z,14.19
2023-05-19T07:46:59.801Z,14.21
2023-05-19T07:47:59.861Z,14.31
2023-05-19T07:48:59.794Z,14.42
2023-05-19T07:49:59.764Z,14.46
2023-05-19T07:50:59.770Z,14.53
2023-05-19T07:51:59.729Z,14.56
2023-05-19T07:52:59.746Z,14.60
2023-05-19T07:53:59.713Z,14.61
2023-05-19T07:54:59.724Z,14.57
2023-05-19T07:55:59.669Z,14.68
2023-05-19T07:56:59.690Z,14.78
2023-05-19T07:57:59.658Z,14.81
2023-05-19T07:58:59.690Z,14.86
2023-05-19T07:59:59.653Z,14.93
2023-05-19T08:00:59.677Z,15.01
2023-05-19T08:01:59.638Z,15.08
2023-05-19T08:02:59.661Z,15.08
2023-05-19T08:03:59.739Z,15.06
2023-05-19T08:04:59.590Z,15.06
2023-05-19T08:05:59.584Z,15.11
2023-05-19T08:06:59.592Z,15.12
2023-05-19T08:08:00.493Z,15.17
2023-05-19T08:08:59.545Z,15.15
2023-05-19T08:09:59.558Z,15.20
2023-05-19T08:10:59.545Z,15.30
2023-05-19T08:11:59.492Z,15.33
2023-05-19T08:12:59.549Z,15.28
2023-05-19T08:13:59.504Z,15.30
2023-05-19T08:15:01.305Z,15.31
2023-05-19T08:15:59.658Z,15.33
2023-05-19T08:16:59.456Z,15.35
2023-05-19T08:17:59.449Z,15.35
2023-05-19T08:18:59.478Z,15.38
2023-05-19T08:19:59.433Z,15.43
2023-05-19T08:20:59.443Z,15.49
2023-05-19T08:21:59.386Z,15.54
2023-05-19T08:22:59.406Z,15.52
2023-05-19T08:23:59.384Z,15.56
2023-05-19T08:24:59.416Z,15.63
2023-05-19T08:25:59.387Z,15.72
2023-05-19T08:26:59.374Z,15.81
2023-05-19T08:27:59.332Z,15.84
2023-05-19T08:28:59.350Z,15.93
2023-05-19T08:29:59.333Z,15.99
2023-05-19T08:30:59.377Z,15.99
2023-05-19T08:31:59.281Z,15.96
2023-05-19T08:32:59.342Z,15.99
2023-05-19T08:33:59.327Z,16.00
2023-05-19T08:34:59.284Z,15.96
2023-05-19T08:35:59.244Z,15.97
2023-05-19T08:36:59.262Z,16.01
2023-05-19T08:37:59.216Z,15.99
2023-05-19T08:38:59.235Z,15.93
2023-05-19T08:39:59.227Z,15.96
2023-05-19T08:40:59.223Z,16.03
2023-05-19T08:41:59.191Z,16.01
2023-05-19T08:42:59.184Z,16.01
2023-05-19T08:43:59.163Z,16.06
2023-05-19T08:44:59.152Z,16.09
2023-05-19T08:45:59.113Z,16.11
2023-05-19T08:46:59.217Z,16.12
2023-05-19T08:47:59.162Z,16.14
2023-05-19T08:48:59.135Z,16.22
2023-05-19T08:49:59.074Z,16.22
2023-05-19T08:50:59.099Z,16.22
2023-05-19T08:51:59.059Z,16.27
2023-05-19T08:52:59.091Z,16.33
2023-05-19T08:54:00.984Z,16.38
2023-05-19T08:54:59.056Z,16.37
2023-05-19T08:55:59.049Z,16.31
2023-05-19T08:56:59.015Z,16.33
2023-05-19T08:57:58.995Z,16.40
2023-05-19T08:58:59.007Z,16.40
2023-05-19T08:59:58.974Z,16.42
2023-05-19T09:00:59.060Z,16.44
2023-05-19T09:01:58.966Z,16.52
2023-05-19T09:03:05.918Z,16.55
2023-05-19T09:04:00.068Z,16.63
2023-05-19T09:04:59.096Z,16.70
2023-05-19T09:05:58.949Z,16.73
2023-05-19T09:06:58.944Z,16.71
2023-05-19T09:07:58.888Z,16.75
2023-05-19T09:08:58.896Z,16.81
2023-05-19T09:09:59.554Z,16.83
2023-05-19T09:10:58.869Z,16.86
2023-05-19T09:11:58.863Z,16.88
2023-05-19T09:12:58.905Z,16.90
2023-05-19T09:13:58.850Z,16.90
2023-05-19T09:14:58.844Z,16.90
2023-05-19T09:15:58.797Z,16.92
2023-05-19T09:16:58.863Z,16.95
2023-05-19T09:17:58.843Z,17.00
2023-05-19T09:18:58.825Z,17.07
2023-05-19T09:19:58.753Z,17.10
2023-05-19T09:20:58.752Z,17.13
2023-05-19T09:21:58.728Z,17.25
2023-05-19T09:22:58.741Z,17.25
2023-05-19T09:23:58.687Z,17.23
2023-05-19T09:24:58.744Z,17.22
2023-05-19T09:25:58.661Z,17.22
2023-05-19T09:27:00.208Z,17.30
2023-05-19T09:27:58.653Z,17.40
2023-05-19T09:28:58.688Z,17.48
2023-05-19T09:29:58.637Z,17.43
2023-05-19T09:30:58.672Z,17.50
2023-05-19T09:31:58.634Z,17.53
2023-05-19T09:32:58.711Z,17.55
2023-05-19T09:33:58.587Z,17.55
2023-05-19T09:34:59.573Z,17.44
2023-05-19T09:35:58.573Z,17.46
2023-05-19T09:36:58.588Z,17.46
2023-05-19T09:37:58.547Z,17.44
2023-05-19T09:38:58.565Z,17.26
2023-05-19T09:39:58.512Z,17.29
2023-05-19T09:40:58.531Z,17.38
2023-05-19T09:41:58.536Z,17.44
2023-05-19T09:42:58.586Z,17.46
2023-05-19T09:43:58.478Z,17.48
2023-05-19T09:44:58.524Z,17.46
2023-05-19T09:45:58.508Z,17.47
2023-05-19T09:46:58.534Z,17.35
2023-05-19T09:47:58.926Z,17.14
2023-05-19T09:48:58.479Z,17.10
2023-05-19T09:49:58.424Z,16.88
2023-05-19T09:50:58.428Z,16.75
2023-05-19T09:51:58.457Z,16.85
2023-05-19T09:52:58.394Z,17.04
2023-05-19T09:53:58.383Z,17.18
2023-05-19T09:54:58.372Z,17.36
2023-05-19T09:55:58.334Z,17.55
2023-05-19T09:56:58.374Z,17.70
2023-05-19T09:57:58.343Z,17.70
2023-05-19T09:58:58.317Z,17.57
2023-05-19T09:59:58.290Z,17.73
2023-05-19T10:00:58.309Z,17.78
2023-05-19T10:01:58.342Z,17.89
2023-05-19T10:02:58.331Z,17.92
2023-05-19T10:03:58.251Z,18.02
2023-05-19T10:04:58.333Z,18.10
2023-05-19T10:05:58.219Z,18.15
2023-05-19T10:06:58.227Z,18.17
2023-05-19T10:07:58.215Z,18.19
2023-05-19T10:08:58.220Z,18.24
2023-05-19T10:09:58.743Z,18.31
2023-05-19T10:10:58.242Z,18.18
2023-05-19T10:11:58.154Z,17.99
2023-05-19T10:12:58.164Z,17.88
2023-05-19T10:13:58.159Z,17.71
2023-05-19T10:14:58.162Z,17.82
2023-05-19T10:15:59.628Z,17.79
2023-05-19T10:16:58.269Z,17.89
2023-05-19T10:17:58.190Z,17.85
2023-05-19T10:18:58.208Z,17.88
2023-05-19T10:19:58.087Z,17.82
2023-05-19T10:20:58.497Z,17.67
2023-05-19T10:21:58.057Z,17.59
2023-05-19T10:22:58.080Z,17.64
2023-05-19T10:23:58.032Z,17.85
2023-05-19T10:24:58.038Z,17.88
2023-05-19T10:25:58.024Z,17.84
2023-05-19T10:26:58.041Z,17.73
2023-05-19T10:27:57.996Z,17.87
2023-05-19T10:28:58.033Z,17.99
2023-05-19T10:29:57.954Z,18.00
2023-05-19T10:30:57.999Z,18.10
2023-05-19T10:31:58.009Z,18.21
2023-05-19T10:32:57.963Z,18.29
2023-05-19T10:33:57.969Z,18.40
2023-05-19T10:34:57.957Z,18.43
2023-05-19T10:35:57.945Z,18.44
2023-05-19T10:36:57.878Z,18.47
2023-05-19T10:37:57.909Z,18.50
2023-05-19T10:38:57.874Z,18.44
2023-05-19T10:39:57.891Z,18.47
2023-05-19T10:40:57.858Z,18.47
2023-05-19T10:41:58.265Z,18.50
2023-05-19T10:42:57.819Z,18.49
2023-05-19T10:43:57.823Z,18.54
2023-05-19T10:44:57.806Z,18.59
2023-05-19T10:45:57.866Z,18.62
2023-05-19T10:46:57.837Z,18.61
2023-05-19T10:47:57.913Z,18.61
2023-05-19T10:48:57.779Z,18.64
2023-05-19T10:49:57.772Z,18.72
2023-05-19T10:50:57.745Z,18.77
2023-05-19T10:51:57.812Z,18.84
2023-05-19T10:52:57.714Z,18.84
2023-05-19T10:53:57.819Z,18.84
2023-05-19T10:54:57.795Z,18.90
2023-05-19T10:55:57.724Z,18.86
2023-05-19T10:56:57.655Z,18.86
2023-05-19T10:57:57.701Z,18.83
2023-05-19T10:58:57.654Z,18.90
2023-05-19T10:59:57.804Z,18.98
2023-05-19T11:00:57.669Z,18.91
2023-05-19T11:01:57.723Z,18.72
2023-05-19T11:02:57.665Z,18.68
2023-05-19T11:03:57.796Z,18.72
2023-05-19T11:04:57.596Z,18.70
2023-05-19T11:05:57.590Z,18.67
2023-05-19T11:06:57.817Z,18.68
2023-05-19T11:07:59.557Z,18.54
2023-05-19T11:08:57.541Z,18.52
2023-05-19T11:09:57.653Z,18.73
2023-05-19T11:10:59.472Z,18.73
2023-05-19T11:11:57.541Z,18.68
2023-05-19T11:12:58.333Z,18.68
2023-05-19T11:13:57.508Z,18.73
2023-05-19T11:14:57.473Z,18.80
2023-05-19T11:15:57.530Z,18.84
2023-05-19T11:16:57.635Z,18.61
2023-05-19T11:17:57.512Z,18.46
2023-05-19T11:18:57.487Z,18.44
2023-05-19T11:19:57.454Z,18.47
2023-05-19T11:20:57.403Z,18.55
2023-05-19T11:21:57.465Z,18.49
2023-05-19T11:22:57.455Z,18.31
2023-05-19T11:23:57.435Z,18.31
2023-05-19T11:24:57.368Z,18.40
2023-05-19T11:25:57.375Z,18.46
2023-05-19T11:26:57.331Z,18.44
2023-05-19T11:27:57.378Z,18.27
2023-05-19T11:28:57.302Z,18.03
2023-05-19T11:29:57.324Z,17.85
2023-05-19T11:30:57.333Z,17.87
2023-05-19T11:31:57.373Z,18.07
2023-05-19T11:32:57.297Z,18.27
2023-05-19T11:33:57.282Z,18.29
2023-05-19T11:34:57.235Z,18.37
2023-05-19T11:35:57.278Z,18.50
2023-05-19T11:36:57.226Z,18.50
2023-05-19T11:37:57.217Z,18.36
2023-05-19T11:38:57.186Z,18.49
2023-05-19T11:39:57.222Z,18.58
2023-05-19T11:40:57.182Z,18.65
2023-05-19T11:41:57.203Z,18.73
2023-05-19T11:42:57.137Z,18.72
2023-05-19T11:43:57.167Z,18.76
2023-05-19T11:44:57.137Z,18.76
2023-05-19T11:45:57.208Z,18.72
2023-05-19T11:46:57.128Z,18.61
2023-05-19T11:48:02.623Z,18.59
2023-05-19T11:48:58.096Z,18.64
2023-05-19T11:49:57.093Z,18.65
2023-05-19T11:50:57.105Z,18.52
2023-05-19T11:51:57.076Z,18.44
2023-05-19T11:52:57.058Z,18.43
2023-05-19T11:53:57.051Z,18.44
2023-05-19T11:54:57.708Z,18.31
2023-05-19T11:55:57.025Z,18.44
2023-05-19T11:56:56.994Z,18.58
2023-05-19T11:58:03.834Z,18.72
2023-05-19T11:58:57.975Z,18.76
2023-05-19T11:59:57.034Z,18.79
2023-05-19T12:00:56.950Z,18.95
2023-05-19T12:01:56.989Z,19.14
2023-05-19T12:02:57.724Z,19.29
2023-05-19T12:03:57.725Z,19.18
2023-05-19T12:04:56.926Z,19.17
2023-05-19T12:05:56.951Z,19.13
2023-05-19T12:06:56.887Z,19.21
2023-05-19T12:07:56.924Z,19.11
2023-05-19T12:08:56.862Z,19.02
2023-05-19T12:09:56.908Z,18.86
2023-05-19T12:10:56.860Z,18.87
2023-05-19T12:11:56.849Z,18.95
2023-05-19T12:12:56.817Z,19.01
2023-05-19T12:13:56.823Z,19.13
2023-05-19T12:14:56.796Z,19.17
2023-05-19T12:15:56.834Z,19.20
2023-05-19T12:16:56.759Z,19.15
2023-05-19T12:17:56.833Z,19.20
2023-05-19T12:18:56.797Z,19.24
2023-05-19T12:19:56.801Z,19.18
2023-05-19T12:20:56.713Z,19.14
2023-05-19T12:21:56.725Z,19.01
2023-05-19T12:22:56.737Z,19.02
2023-05-19T12:23:56.726Z,19.13
2023-05-19T12:24:56.716Z,19.11
2023-05-19T12:25:56.686Z,19.17
2023-05-19T12:26:56.643Z,19.21
2023-05-19T12:27:58.060Z,19.23
2023-05-19T12:28:56.636Z,19.23
2023-05-19T12:29:56.678Z,19.20
2023-05-19T12:30:56.620Z,19.10
2023-05-19T12:31:56.616Z,19.15
2023-05-19T12:32:56.725Z,19.18
2023-05-19T12:33:56.602Z,19.18
2023-05-19T12:34:56.584Z,19.15
2023-05-19T12:35:56.585Z,19.17
2023-05-19T12:36:56.562Z,19.24
2023-05-19T12:37:56.577Z,19.24
2023-05-19T12:38:56.540Z,19.33
2023-05-19T12:39:56.558Z,19.35
2023-05-19T12:40:56.518Z,19.43
2023-05-19T12:41:56.524Z,19.51
2023-05-19T12:42:56.485Z,19.63
2023-05-19T12:43:56.490Z,19.70
2023-05-19T12:44:56.448Z,19.53
2023-05-19T12:45:56.470Z,19.58
2023-05-19T12:46:56.438Z,19.54
2023-05-19T12:47:56.621Z,19.63
2023-05-19T12:48:56.414Z,19.65
2023-05-19T12:49:56.473Z,19.61
2023-05-19T12:50:57.357Z,19.57
2023-05-19T12:51:56.402Z,19.60
2023-05-19T12:52:56.420Z,19.47
2023-05-19T12:53:56.397Z,19.46
2023-05-19T12:54:56.375Z,19.50
2023-05-19T12:55:56.404Z,19.50
2023-05-19T12:56:56.320Z,19.53
2023-05-19T12:57:56.346Z,19.60
2023-05-19T12:58:56.312Z,19.63
2023-05-19T12:59:56.358Z,19.68
2023-05-19T13:00:56.323Z,19.75